sensor_id;sensor_type;location;lat;lon;timestamp;temperature;humidity
51383;DHT22;37475;43.358;1.248;2023-03-01T00:01:23;0.60;73.90
51383;DHT22;37475;43.358;1.248;2023-03-01T00:03:52;0.60;73.20
51383;DHT22;37475;43.358;1.248;2023-03-01T00:06:19;0.60;73.20
51383;DHT22;37475;43.358;1.248;2023-03-01T00:08:46;0.60;73.20
51383;DHT22;37475;43.358;1.248;2023-03-01T00:13:53;0.40;74.20
51383;DHT22;37475;43.358;1.248;2023-03-01T00:16:24;0.10;76.20
51383;DHT22;37475;43.358;1.248;2023-03-01T00:18:57;-3276.70;78.00
51383;DHT22;37475;43.358;1.248;2023-03-01T00:21:23;-3276.60;78.80
51383;DHT22;37475;43.358;1.248;2023-03-01T00:23:50;-3276.70;78.40
51383;DHT22;37475;43.358;1.248;2023-03-01T00:26:17;-3276.70;78.90
51383;DHT22;37475;43.358;1.248;2023-03-01T00:28:44;0.00;78.70
51383;DHT22;37475;43.358;1.248;2023-03-01T00:31:14;0.00;77.90
51383;DHT22;37475;43.358;1.248;2023-03-01T00:33:42;0.10;76.80
51383;DHT22;37475;43.358;1.248;2023-03-01T00:36:10;0.10;76.40
51383;DHT22;37475;43.358;1.248;2023-03-01T00:38:38;0.10;75.90
51383;DHT22;37475;43.358;1.248;2023-03-01T00:41:11;0.10;75.70
51383;DHT22;37475;43.358;1.248;2023-03-01T00:43:41;0.10;76.10
51383;DHT22;37475;43.358;1.248;2023-03-01T00:46:11;0.00;76.10
51383;DHT22;37475;43.358;1.248;2023-03-01T00:48:38;0.00;76.90
51383;DHT22;37475;43.358;1.248;2023-03-01T00:51:09;-3276.70;76.80
51383;DHT22;37475;43.358;1.248;2023-03-01T00:53:36;-3276.60;77.60
51383;DHT22;37475;43.358;1.248;2023-03-01T00:56:02;-3276.70;77.50
51383;DHT22;37475;43.358;1.248;2023-03-01T00:58:29;0.00;77.60
51383;DHT22;37475;43.358;1.248;2023-03-01T01:00:55;-3276.70;77.30
51383;DHT22;37475;43.358;1.248;2023-03-01T01:03:22;-3276.60;77.50
51383;DHT22;37475;43.358;1.248;2023-03-01T01:05:50;-3276.50;78.30
51383;DHT22;37475;43.358;1.248;2023-03-01T01:08:17;-3276.50;78.50
51383;DHT22;37475;43.358;1.248;2023-03-01T01:10:45;-3276.60;78.40
51383;DHT22;37475;43.358;1.248;2023-03-01T01:13:11;-3276.50;78.30
51383;DHT22;37475;43.358;1.248;2023-03-01T01:15:38;-3276.40;79.20
51383;DHT22;37475;43.358;1.248;2023-03-01T01:18:04;-3276.40;79.30
51383;DHT22;37475;43.358;1.248;2023-03-01T01:20:30;-3276.50;79.40
51383;DHT22;37475;43.358;1.248;2023-03-01T01:22:56;-3276.50;79.50
51383;DHT22;37475;43.358;1.248;2023-03-01T01:25:22;-3276.50;79.30
51383;DHT22;37475;43.358;1.248;2023-03-01T01:27:50;-3276.60;78.70
51383;DHT22;37475;43.358;1.248;2023-03-01T01:30:17;-3276.60;78.50
51383;DHT22;37475;43.358;1.248;2023-03-01T01:32:43;-3276.50;78.60
51383;DHT22;37475;43.358;1.248;2023-03-01T01:35:09;-3276.50;78.60
51383;DHT22;37475;43.358;1.248;2023-03-01T01:37:35;-3276.40;78.90
51383;DHT22;37475;43.358;1.248;2023-03-01T01:40:01;-3276.20;79.30
51383;DHT22;37475;43.358;1.248;2023-03-01T01:42:30;-3276.20;79.70
51383;DHT22;37475;43.358;1.248;2023-03-01T01:47:52;-3276.20;79.80
51383;DHT22;37475;43.358;1.248;2023-03-01T01:50:20;-3276.10;79.60
51383;DHT22;37475;43.358;1.248;2023-03-01T01:52:48;-3276.10;79.80
51383;DHT22;37475;43.358;1.248;2023-03-01T01:55:23;-3276.10;79.70
51383;DHT22;37475;43.358;1.248;2023-03-01T01:57:56;-3276.10;79.90
51383;DHT22;37475;43.358;1.248;2023-03-01T02:00:28;-3276.00;80.40
51383;DHT22;37475;43.358;1.248;2023-03-01T02:03:00;-3275.70;81.00
51383;DHT22;37475;43.358;1.248;2023-03-01T02:08:23;-3275.60;82.70
51383;DHT22;37475;43.358;1.248;2023-03-01T02:10:53;-3275.60;82.90
51383;DHT22;37475;43.358;1.248;2023-03-01T02:13:20;-3275.60;83.10
51383;DHT22;37475;43.358;1.248;2023-03-01T02:15:46;-3275.50;83.40
51383;DHT22;37475;43.358;1.248;2023-03-01T02:18:16;-3275.60;83.40
51383;DHT22;37475;43.358;1.248;2023-03-01T02:21:26;-3275.50;83.20
51383;DHT22;37475;43.358;1.248;2023-03-01T02:27:17;-3275.40;84.10
51383;DHT22;37475;43.358;1.248;2023-03-01T02:29:43;-3275.50;83.70
51383;DHT22;37475;43.358;1.248;2023-03-01T02:32:10;-3275.40;83.80
51383;DHT22;37475;43.358;1.248;2023-03-01T02:34:38;-3275.30;84.40
51383;DHT22;37475;43.358;1.248;2023-03-01T02:37:11;-3275.30;84.90
51383;DHT22;37475;43.358;1.248;2023-03-01T02:39:44;-3275.40;84.90
51383;DHT22;37475;43.358;1.248;2023-03-01T02:42:20;-3275.50;84.50
51383;DHT22;37475;43.358;1.248;2023-03-01T02:44:49;-3275.50;84.20
51383;DHT22;37475;43.358;1.248;2023-03-01T02:47:15;-3275.50;83.80
51383;DHT22;37475;43.358;1.248;2023-03-01T02:49:41;-3275.40;83.80
51383;DHT22;37475;43.358;1.248;2023-03-01T02:55:17;-3275.20;84.70
51383;DHT22;37475;43.358;1.248;2023-03-01T02:57:45;-3275.20;85.30
51383;DHT22;37475;43.358;1.248;2023-03-01T03:00:16;-3275.20;85.60
51383;DHT22;37475;43.358;1.248;2023-03-01T03:02:51;-3275.30;85.70
51383;DHT22;37475;43.358;1.248;2023-03-01T03:05:24;-3275.30;85.40
51383;DHT22;37475;43.358;1.248;2023-03-01T03:07:52;-3275.30;85.20
51383;DHT22;37475;43.358;1.248;2023-03-01T03:10:25;-3275.30;84.60
51383;DHT22;37475;43.358;1.248;2023-03-01T03:12:55;-3275.30;84.10
51383;DHT22;37475;43.358;1.248;2023-03-01T03:15:24;-3275.40;83.70
51383;DHT22;37475;43.358;1.248;2023-03-01T03:17:52;-3275.30;83.40
51383;DHT22;37475;43.358;1.248;2023-03-01T03:20:20;-3275.30;83.50
51383;DHT22;37475;43.358;1.248;2023-03-01T03:22:51;-3275.00;84.00
51383;DHT22;37475;43.358;1.248;2023-03-01T03:25:19;-3274.90;85.50
51383;DHT22;37475;43.358;1.248;2023-03-01T03:27:48;-3274.90;86.20
51383;DHT22;37475;43.358;1.248;2023-03-01T03:30:19;-3274.90;86.10
51383;DHT22;37475;43.358;1.248;2023-03-01T03:32:48;-3275.00;85.80
51383;DHT22;37475;43.358;1.248;2023-03-01T03:35:31;-3275.00;85.50
51383;DHT22;37475;43.358;1.248;2023-03-01T03:38:00;-3274.80;85.80
51383;DHT22;37475;43.358;1.248;2023-03-01T03:40:28;-3274.70;86.50
51383;DHT22;37475;43.358;1.248;2023-03-01T03:42:54;-3274.70;86.90
51383;DHT22;37475;43.358;1.248;2023-03-01T03:45:20;-3274.80;86.80
51383;DHT22;37475;43.358;1.248;2023-03-01T03:47:46;-3274.80;86.70
51383;DHT22;37475;43.358;1.248;2023-03-01T03:50:14;-3274.80;86.40
51383;DHT22;37475;43.358;1.248;2023-03-01T03:52:42;-3274.80;86.20
51383;DHT22;37475;43.358;1.248;2023-03-01T03:55:10;-3274.70;86.00
51383;DHT22;37475;43.358;1.248;2023-03-01T03:57:38;-3274.60;86.40
51383;DHT22;37475;43.358;1.248;2023-03-01T04:00:10;-3274.60;86.60
51383;DHT22;37475;43.358;1.248;2023-03-01T04:02:44;-3274.60;86.30
51383;DHT22;37475;43.358;1.248;2023-03-01T04:05:12;-3274.70;86.20
51383;DHT22;37475;43.358;1.248;2023-03-01T04:07:42;-3274.60;86.30
51383;DHT22;37475;43.358;1.248;2023-03-01T04:10:14;-3274.60;87.00
51383;DHT22;37475;43.358;1.248;2023-03-01T04:12:42;-3274.60;87.20
51383;DHT22;37475;43.358;1.248;2023-03-01T04:15:12;-3274.60;87.10
51383;DHT22;37475;43.358;1.248;2023-03-01T04:17:46;-3274.50;86.90
51383;DHT22;37475;43.358;1.248;2023-03-01T04:20:15;-3274.40;87.30
51383;DHT22;37475;43.358;1.248;2023-03-01T04:22:59;-3274.40;87.70
51383;DHT22;37475;43.358;1.248;2023-03-01T04:25:55;-3274.50;87.70
51383;DHT22;37475;43.358;1.248;2023-03-01T04:28:30;-3274.60;87.60
51383;DHT22;37475;43.358;1.248;2023-03-01T04:31:04;-3274.40;87.70
51383;DHT22;37475;43.358;1.248;2023-03-01T04:33:43;-3274.30;88.20
51383;DHT22;37475;43.358;1.248;2023-03-01T04:36:29;-3274.30;88.60
51383;DHT22;37475;43.358;1.248;2023-03-01T04:38:55;-3274.40;88.50
51383;DHT22;37475;43.358;1.248;2023-03-01T04:41:23;-3274.40;88.40
51383;DHT22;37475;43.358;1.248;2023-03-01T04:43:50;-3274.40;88.60
51383;DHT22;37475;43.358;1.248;2023-03-01T04:46:18;-3274.30;88.30
51383;DHT22;37475;43.358;1.248;2023-03-01T04:48:45;-3274.30;88.40
51383;DHT22;37475;43.358;1.248;2023-03-01T04:51:12;-3274.30;88.40
51383;DHT22;37475;43.358;1.248;2023-03-01T04:53:39;-3274.30;88.20
51383;DHT22;37475;43.358;1.248;2023-03-01T04:56:06;-3274.40;88.00
51383;DHT22;37475;43.358;1.248;2023-03-01T04:58:32;-3274.30;87.60
51383;DHT22;37475;43.358;1.248;2023-03-01T05:00:58;-3274.30;87.30
51383;DHT22;37475;43.358;1.248;2023-03-01T05:03:24;-3274.20;87.40
51383;DHT22;37475;43.358;1.248;2023-03-01T05:05:52;-3274.20;87.20
51383;DHT22;37475;43.358;1.248;2023-03-01T05:08:18;-3274.20;87.30
51383;DHT22;37475;43.358;1.248;2023-03-01T05:10:54;-3274.20;87.60
51383;DHT22;37475;43.358;1.248;2023-03-01T05:13:21;-3274.20;88.00
51383;DHT22;37475;43.358;1.248;2023-03-01T05:16:00;-3274.10;88.20
51383;DHT22;37475;43.358;1.248;2023-03-01T05:18:31;-3274.10;88.30
51383;DHT22;37475;43.358;1.248;2023-03-01T05:21:17;-3274.20;88.40
51383;DHT22;37475;43.358;1.248;2023-03-01T05:23:43;-3274.20;88.60
51383;DHT22;37475;43.358;1.248;2023-03-01T05:26:11;-3274.20;88.70
51383;DHT22;37475;43.358;1.248;2023-03-01T05:28:38;-3274.20;88.70
51383;DHT22;37475;43.358;1.248;2023-03-01T05:31:04;-3274.20;88.60
51383;DHT22;37475;43.358;1.248;2023-03-01T05:33:36;-3274.20;88.20
51383;DHT22;37475;43.358;1.248;2023-03-01T05:36:04;-3274.20;88.10
51383;DHT22;37475;43.358;1.248;2023-03-01T05:38:30;-3274.30;88.00
51383;DHT22;37475;43.358;1.248;2023-03-01T05:40:56;-3274.20;87.60
51383;DHT22;37475;43.358;1.248;2023-03-01T05:43:22;-3274.10;87.40
51383;DHT22;37475;43.358;1.248;2023-03-01T05:45:48;-3274.10;87.70
51383;DHT22;37475;43.358;1.248;2023-03-01T05:48:14;-3274.10;87.50
51383;DHT22;37475;43.358;1.248;2023-03-01T05:50:42;-3274.10;87.40
51383;DHT22;37475;43.358;1.248;2023-03-01T05:53:13;-3274.00;87.00
51383;DHT22;37475;43.358;1.248;2023-03-01T05:55:43;-3273.90;86.90
51383;DHT22;37475;43.358;1.248;2023-03-01T05:58:15;-3273.80;86.90
51383;DHT22;37475;43.358;1.248;2023-03-01T06:00:44;-3273.80;87.00
51383;DHT22;37475;43.358;1.248;2023-03-01T06:03:13;-3273.80;87.00
51383;DHT22;37475;43.358;1.248;2023-03-01T06:05:40;-3273.80;87.10
51383;DHT22;37475;43.358;1.248;2023-03-01T06:08:08;-3273.70;87.30
51383;DHT22;37475;43.358;1.248;2023-03-01T06:10:35;-3273.70;87.60
51383;DHT22;37475;43.358;1.248;2023-03-01T06:13:00;-3273.80;87.50
51383;DHT22;37475;43.358;1.248;2023-03-01T06:15:26;-3273.80;87.40
51383;DHT22;37475;43.358;1.248;2023-03-01T06:17:54;-3273.80;87.20
51383;DHT22;37475;43.358;1.248;2023-03-01T06:20:24;-3273.70;87.00
51383;DHT22;37475;43.358;1.248;2023-03-01T06:22:51;-3273.70;86.90
51383;DHT22;37475;43.358;1.248;2023-03-01T06:25:20;-3273.80;87.10
51383;DHT22;37475;43.358;1.248;2023-03-01T06:27:48;-3273.80;86.90
51383;DHT22;37475;43.358;1.248;2023-03-01T06:30:16;-3273.70;86.80
51383;DHT22;37475;43.358;1.248;2023-03-01T06:32:43;-3273.60;87.30
51383;DHT22;37475;43.358;1.248;2023-03-01T06:35:11;-3273.60;87.90
51383;DHT22;37475;43.358;1.248;2023-03-01T06:37:38;-3273.60;88.10
51383;DHT22;37475;43.358;1.248;2023-03-01T06:40:05;-3273.60;88.30
51383;DHT22;37475;43.358;1.248;2023-03-01T06:42:34;-3273.60;88.10
51383;DHT22;37475;43.358;1.248;2023-03-01T06:45:01;-3273.60;87.90
51383;DHT22;37475;43.358;1.248;2023-03-01T06:47:27;-3273.60;87.70
51383;DHT22;37475;43.358;1.248;2023-03-01T06:49:53;-3273.50;87.90
51383;DHT22;37475;43.358;1.248;2023-03-01T06:52:19;-3273.40;88.20
51383;DHT22;37475;43.358;1.248;2023-03-01T06:54:45;-3273.40;88.50
51383;DHT22;37475;43.358;1.248;2023-03-01T06:57:11;-3273.50;88.50
51383;DHT22;37475;43.358;1.248;2023-03-01T06:59:36;-3273.40;88.30
51383;DHT22;37475;43.358;1.248;2023-03-01T07:02:02;-3273.50;88.30
51383;DHT22;37475;43.358;1.248;2023-03-01T07:04:28;-3273.50;88.30
51383;DHT22;37475;43.358;1.248;2023-03-01T07:06:56;-3273.60;88.20
51383;DHT22;37475;43.358;1.248;2023-03-01T07:09:25;-3273.60;87.90
51383;DHT22;37475;43.358;1.248;2023-03-01T07:11:51;-3273.60;87.80
51383;DHT22;37475;43.358;1.248;2023-03-01T07:14:16;-3273.60;88.10
51383;DHT22;37475;43.358;1.248;2023-03-01T07:16:42;-3273.70;88.40
51383;DHT22;37475;43.358;1.248;2023-03-01T07:19:08;-3273.70;88.60
51383;DHT22;37475;43.358;1.248;2023-03-01T07:21:34;-3273.80;89.00
51383;DHT22;37475;43.358;1.248;2023-03-01T07:23:59;-3273.90;89.00
51383;DHT22;37475;43.358;1.248;2023-03-01T07:26:25;-3274.00;88.80
51383;DHT22;37475;43.358;1.248;2023-03-01T07:28:51;-3274.10;88.70
51383;DHT22;37475;43.358;1.248;2023-03-01T07:31:17;-3274.20;88.60
51383;DHT22;37475;43.358;1.248;2023-03-01T07:33:42;-3274.30;88.50
51383;DHT22;37475;43.358;1.248;2023-03-01T07:36:09;-3274.40;88.30
51383;DHT22;37475;43.358;1.248;2023-03-01T07:38:34;-3274.50;88.30
51383;DHT22;37475;43.358;1.248;2023-03-01T07:41:02;-3274.60;88.20
51383;DHT22;37475;43.358;1.248;2023-03-01T07:43:30;-3274.60;88.00
51383;DHT22;37475;43.358;1.248;2023-03-01T07:46:00;-3274.70;87.90
51383;DHT22;37475;43.358;1.248;2023-03-01T07:48:27;-3274.80;88.20
51383;DHT22;37475;43.358;1.248;2023-03-01T07:50:53;-3274.90;88.40
51383;DHT22;37475;43.358;1.248;2023-03-01T07:53:19;-3275.00;88.50
51383;DHT22;37475;43.358;1.248;2023-03-01T07:55:45;-3275.00;88.60
51383;DHT22;37475;43.358;1.248;2023-03-01T07:58:10;-3275.10;88.50
51383;DHT22;37475;43.358;1.248;2023-03-01T08:00:36;-3275.10;88.50
51383;DHT22;37475;43.358;1.248;2023-03-01T08:03:02;-3275.20;88.40
51383;DHT22;37475;43.358;1.248;2023-03-01T08:05:28;-3275.30;88.40
51383;DHT22;37475;43.358;1.248;2023-03-01T08:07:54;-3275.40;88.00
51383;DHT22;37475;43.358;1.248;2023-03-01T08:10:20;-3275.50;87.90
51383;DHT22;37475;43.358;1.248;2023-03-01T08:12:46;-3275.60;87.80
51383;DHT22;37475;43.358;1.248;2023-03-01T08:15:12;-3275.60;87.70
51383;DHT22;37475;43.358;1.248;2023-03-01T08:17:38;-3275.70;87.60
51383;DHT22;37475;43.358;1.248;2023-03-01T08:20:04;-3275.90;87.60
51383;DHT22;37475;43.358;1.248;2023-03-01T08:22:32;-3276.00;87.50
51383;DHT22;37475;43.358;1.248;2023-03-01T08:24:58;-3276.10;87.20
51383;DHT22;37475;43.358;1.248;2023-03-01T08:27:23;-3276.20;87.10
51383;DHT22;37475;43.358;1.248;2023-03-01T08:29:49;-3276.40;86.90
51383;DHT22;37475;43.358;1.248;2023-03-01T08:32:15;-3276.50;86.50
51383;DHT22;37475;43.358;1.248;2023-03-01T08:34:40;-3276.60;85.70
51383;DHT22;37475;43.358;1.248;2023-03-01T08:37:06;0.00;84.50
51383;DHT22;37475;43.358;1.248;2023-03-01T08:39:32;0.10;83.40
51383;DHT22;37475;43.358;1.248;2023-03-01T08:41:58;0.20;82.40
51383;DHT22;37475;43.358;1.248;2023-03-01T08:44:24;0.30;82.00
51383;DHT22;37475;43.358;1.248;2023-03-01T08:46:50;0.50;82.00
51383;DHT22;37475;43.358;1.248;2023-03-01T08:49:18;0.60;81.30
51383;DHT22;37475;43.358;1.248;2023-03-01T08:51:45;0.70;81.30
51383;DHT22;37475;43.358;1.248;2023-03-01T08:54:14;0.80;80.90
51383;DHT22;37475;43.358;1.248;2023-03-01T08:56:42;0.90;80.60
51383;DHT22;37475;43.358;1.248;2023-03-01T08:59:08;1.00;80.40
51383;DHT22;37475;43.358;1.248;2023-03-01T09:01:34;1.10;79.90
51383;DHT22;37475;43.358;1.248;2023-03-01T09:04:01;1.20;79.10
51383;DHT22;37475;43.358;1.248;2023-03-01T09:06:30;1.40;77.40
51383;DHT22;37475;43.358;1.248;2023-03-01T09:08:58;1.50;74.80
51383;DHT22;37475;43.358;1.248;2023-03-01T09:11:24;1.60;73.60
51383;DHT22;37475;43.358;1.248;2023-03-01T09:13:50;1.80;73.70
51383;DHT22;37475;43.358;1.248;2023-03-01T09:16:18;2.00;70.80
51383;DHT22;37475;43.358;1.248;2023-03-01T09:18:49;2.10;70.20
51383;DHT22;37475;43.358;1.248;2023-03-01T09:21:17;2.20;69.70
51383;DHT22;37475;43.358;1.248;2023-03-01T09:23:45;2.40;69.60
51383;DHT22;37475;43.358;1.248;2023-03-01T09:26:18;2.50;68.40
51383;DHT22;37475;43.358;1.248;2023-03-01T09:28:47;2.60;68.20
51383;DHT22;37475;43.358;1.248;2023-03-01T09:31:14;2.70;65.60
51383;DHT22;37475;43.358;1.248;2023-03-01T09:33:42;2.90;65.40
51383;DHT22;37475;43.358;1.248;2023-03-01T09:36:11;2.90;63.20
51383;DHT22;37475;43.358;1.248;2023-03-01T09:38:39;2.90;62.90
51383;DHT22;37475;43.358;1.248;2023-03-01T09:44:03;3.10;62.10
51383;DHT22;37475;43.358;1.248;2023-03-01T09:46:43;3.20;61.90
51383;DHT22;37475;43.358;1.248;2023-03-01T09:49:28;3.20;61.80
51383;DHT22;37475;43.358;1.248;2023-03-01T09:54:38;3.20;56.70
51383;DHT22;37475;43.358;1.248;2023-03-01T10:02:38;3.60;56.60
51383;DHT22;37475;43.358;1.248;2023-03-01T10:08:38;3.60;55.70
51383;DHT22;37475;43.358;1.248;2023-03-01T10:11:24;3.90;58.30
51383;DHT22;37475;43.358;1.248;2023-03-01T10:18:59;3.90;57.00
51383;DHT22;37475;43.358;1.248;2023-03-01T10:21:28;4.10;56.50
51383;DHT22;37475;43.358;1.248;2023-03-01T10:24:05;4.30;56.40
51383;DHT22;37475;43.358;1.248;2023-03-01T10:26:57;4.30;55.80
51383;DHT22;37475;43.358;1.248;2023-03-01T10:29:33;4.50;53.80
51383;DHT22;37475;43.358;1.248;2023-03-01T10:32:04;4.60;53.20
51383;DHT22;37475;43.358;1.248;2023-03-01T10:34:34;4.60;52.10
51383;DHT22;37475;43.358;1.248;2023-03-01T10:37:11;4.40;53.30
51383;DHT22;37475;43.358;1.248;2023-03-01T10:39:58;4.50;52.60
51383;DHT22;37475;43.358;1.248;2023-03-01T10:42:47;4.70;51.10
51383;DHT22;37475;43.358;1.248;2023-03-01T10:45:38;4.80;51.30
51383;DHT22;37475;43.358;1.248;2023-03-01T10:53:27;4.70;51.70
51383;DHT22;37475;43.358;1.248;2023-03-01T10:56:11;4.70;52.30
51383;DHT22;37475;43.358;1.248;2023-03-01T10:58:41;4.50;50.60
51383;DHT22;37475;43.358;1.248;2023-03-01T11:06:28;5.30;50.90
51383;DHT22;37475;43.358;1.248;2023-03-01T11:08:54;5.40;48.60
51383;DHT22;37475;43.358;1.248;2023-03-01T11:11:32;5.20;50.00
51383;DHT22;37475;43.358;1.248;2023-03-01T11:16:48;5.40;48.60
51383;DHT22;37475;43.358;1.248;2023-03-01T11:19:20;5.50;50.40
51383;DHT22;37475;43.358;1.248;2023-03-01T11:22:07;5.60;48.10
51383;DHT22;37475;43.358;1.248;2023-03-01T11:27:28;6.10;47.60
51383;DHT22;37475;43.358;1.248;2023-03-01T11:32:44;6.70;47.20
51383;DHT22;37475;43.358;1.248;2023-03-01T11:35:24;7.10;46.70
51383;DHT22;37475;43.358;1.248;2023-03-01T11:52:02;5.90;47.50
51383;DHT22;37475;43.358;1.248;2023-03-01T12:01:02;6.50;48.00
51383;DHT22;37475;43.358;1.248;2023-03-01T12:09:56;8.20;44.50
51383;DHT22;37475;43.358;1.248;2023-03-01T12:24:23;6.90;44.70
51383;DHT22;37475;43.358;1.248;2023-03-01T12:35:36;6.80;45.60
51383;DHT22;37475;43.358;1.248;2023-03-01T12:43:59;7.50;45.30
51383;DHT22;37475;43.358;1.248;2023-03-01T12:46:55;7.40;47.40
51383;DHT22;37475;43.358;1.248;2023-03-01T12:49:28;7.00;46.40
51383;DHT22;37475;43.358;1.248;2023-03-01T12:52:02;7.60;46.80
51383;DHT22;37475;43.358;1.248;2023-03-01T12:54:51;7.60;43.80
51383;DHT22;37475;43.358;1.248;2023-03-01T13:10:58;9.30;41.20
51383;DHT22;37475;43.358;1.248;2023-03-01T13:13:27;9.00;42.50
51383;DHT22;37475;43.358;1.248;2023-03-01T13:15:55;9.60;40.60
51383;DHT22;37475;43.358;1.248;2023-03-01T13:20:55;8.60;41.70
51383;DHT22;37475;43.358;1.248;2023-03-01T13:26:14;9.60;40.70
51383;DHT22;37475;43.358;1.248;2023-03-01T13:28:53;10.50;39.10
51383;DHT22;37475;43.358;1.248;2023-03-01T13:33:51;9.40;40.30
51383;DHT22;37475;43.358;1.248;2023-03-01T13:46:56;8.90;41.90
51383;DHT22;37475;43.358;1.248;2023-03-01T13:49:55;9.40;40.30
51383;DHT22;37475;43.358;1.248;2023-03-01T13:57:41;9.70;39.90
51383;DHT22;37475;43.358;1.248;2023-03-01T14:03:08;11.40;37.60
51383;DHT22;37475;43.358;1.248;2023-03-01T14:05:35;12.20;36.20
51383;DHT22;37475;43.358;1.248;2023-03-01T14:08:03;11.10;35.30
51383;DHT22;37475;43.358;1.248;2023-03-01T14:10:53;10.60;38.30
51383;DHT22;37475;43.358;1.248;2023-03-01T14:19:15;9.00;40.50
51383;DHT22;37475;43.358;1.248;2023-03-01T14:21:44;9.60;40.80
51383;DHT22;37475;43.358;1.248;2023-03-01T14:24:23;9.30;41.00
51383;DHT22;37475;43.358;1.248;2023-03-01T14:26:49;10.00;39.20
51383;DHT22;37475;43.358;1.248;2023-03-01T14:29:34;9.30;40.30
51383;DHT22;37475;43.358;1.248;2023-03-01T14:32:24;10.80;37.60
51383;DHT22;37475;43.358;1.248;2023-03-01T14:34:51;10.70;37.50
51383;DHT22;37475;43.358;1.248;2023-03-01T14:37:29;9.40;39.80
51383;DHT22;37475;43.358;1.248;2023-03-01T14:39:59;8.40;40.70
51383;DHT22;37475;43.358;1.248;2023-03-01T14:42:29;9.20;43.00
51383;DHT22;37475;43.358;1.248;2023-03-01T14:44:57;9.40;40.20
51383;DHT22;37475;43.358;1.248;2023-03-01T14:47:31;8.80;42.10
51383;DHT22;37475;43.358;1.248;2023-03-01T14:50:26;9.90;40.80
51383;DHT22;37475;43.358;1.248;2023-03-01T14:52:59;10.70;38.70
51383;DHT22;37475;43.358;1.248;2023-03-01T14:58:12;10.10;39.90
51383;DHT22;37475;43.358;1.248;2023-03-01T15:00:53;10.50;38.60
51383;DHT22;37475;43.358;1.248;2023-03-01T15:06:10;10.30;39.30
51383;DHT22;37475;43.358;1.248;2023-03-01T15:08:42;9.80;41.90
51383;DHT22;37475;43.358;1.248;2023-03-01T15:13:52;9.40;40.00
51383;DHT22;37475;43.358;1.248;2023-03-01T15:16:22;8.90;41.40
51383;DHT22;37475;43.358;1.248;2023-03-01T15:18:55;8.30;42.80
51383;DHT22;37475;43.358;1.248;2023-03-01T15:21:34;9.30;40.60
51383;DHT22;37475;43.358;1.248;2023-03-01T15:24:16;9.00;42.10
51383;DHT22;37475;43.358;1.248;2023-03-01T15:26:56;9.80;41.90
51383;DHT22;37475;43.358;1.248;2023-03-01T15:29:28;9.40;40.80
51383;DHT22;37475;43.358;1.248;2023-03-01T15:34:53;9.40;40.50
51383;DHT22;37475;43.358;1.248;2023-03-01T15:37:47;9.10;41.10
51383;DHT22;37475;43.358;1.248;2023-03-01T15:40:26;9.10;39.60
51383;DHT22;37475;43.358;1.248;2023-03-01T15:43:13;9.70;39.70
51383;DHT22;37475;43.358;1.248;2023-03-01T15:46:04;9.10;40.80
51383;DHT22;37475;43.358;1.248;2023-03-01T15:48:30;10.10;38.20
51383;DHT22;37475;43.358;1.248;2023-03-01T15:50:58;9.90;39.50
51383;DHT22;37475;43.358;1.248;2023-03-01T15:53:26;10.00;40.10
51383;DHT22;37475;43.358;1.248;2023-03-01T15:55:53;10.90;37.00
51383;DHT22;37475;43.358;1.248;2023-03-01T15:58:24;10.20;38.80
51383;DHT22;37475;43.358;1.248;2023-03-01T16:00:50;8.90;40.60
51383;DHT22;37475;43.358;1.248;2023-03-01T16:03:22;8.40;42.30
51383;DHT22;37475;43.358;1.248;2023-03-01T16:05:49;8.20;41.30
51383;DHT22;37475;43.358;1.248;2023-03-01T16:08:17;7.90;43.50
51383;DHT22;37475;43.358;1.248;2023-03-01T16:10:43;8.60;43.40
51383;DHT22;37475;43.358;1.248;2023-03-01T16:13:10;9.50;41.30
51383;DHT22;37475;43.358;1.248;2023-03-01T16:15:39;10.10;39.00
51383;DHT22;37475;43.358;1.248;2023-03-01T16:18:06;9.80;39.10
51383;DHT22;37475;43.358;1.248;2023-03-01T16:20:33;9.60;39.90
51383;DHT22;37475;43.358;1.248;2023-03-01T16:23:04;8.80;41.70
51383;DHT22;37475;43.358;1.248;2023-03-01T16:25:32;8.90;41.40
51383;DHT22;37475;43.358;1.248;2023-03-01T16:27:58;9.10;40.50
51383;DHT22;37475;43.358;1.248;2023-03-01T16:30:26;8.70;41.30
51383;DHT22;37475;43.358;1.248;2023-03-01T16:32:52;8.60;42.00
51383;DHT22;37475;43.358;1.248;2023-03-01T16:35:20;9.00;41.50
51383;DHT22;37475;43.358;1.248;2023-03-01T16:37:47;9.70;40.00
51383;DHT22;37475;43.358;1.248;2023-03-01T16:40:19;9.00;41.30
51383;DHT22;37475;43.358;1.248;2023-03-01T16:42:50;8.20;43.70
51383;DHT22;37475;43.358;1.248;2023-03-01T16:45:17;7.90;43.40
51383;DHT22;37475;43.358;1.248;2023-03-01T16:47:43;8.10;44.40
51383;DHT22;37475;43.358;1.248;2023-03-01T16:50:09;7.80;44.20
51383;DHT22;37475;43.358;1.248;2023-03-01T16:52:36;7.60;43.30
51383;DHT22;37475;43.358;1.248;2023-03-01T16:55:03;7.60;45.50
51383;DHT22;37475;43.358;1.248;2023-03-01T16:57:30;7.60;45.40
51383;DHT22;37475;43.358;1.248;2023-03-01T16:59:56;7.30;46.90
51383;DHT22;37475;43.358;1.248;2023-03-01T17:02:21;7.50;46.40
51383;DHT22;37475;43.358;1.248;2023-03-01T17:04:55;7.50;45.90
51383;DHT22;37475;43.358;1.248;2023-03-01T17:07:21;7.20;46.60
51383;DHT22;37475;43.358;1.248;2023-03-01T17:09:47;7.10;47.00
51383;DHT22;37475;43.358;1.248;2023-03-01T17:12:14;6.70;47.90
51383;DHT22;37475;43.358;1.248;2023-03-01T17:14:42;6.60;48.90
51383;DHT22;37475;43.358;1.248;2023-03-01T17:17:08;6.60;48.40
51383;DHT22;37475;43.358;1.248;2023-03-01T17:19:35;6.60;48.40
51383;DHT22;37475;43.358;1.248;2023-03-01T17:22:06;6.40;49.10
51383;DHT22;37475;43.358;1.248;2023-03-01T17:24:39;6.00;50.40
51383;DHT22;37475;43.358;1.248;2023-03-01T17:27:06;5.90;50.50
51383;DHT22;37475;43.358;1.248;2023-03-01T17:29:32;6.10;50.50
51383;DHT22;37475;43.358;1.248;2023-03-01T17:31:59;6.00;50.00
51383;DHT22;37475;43.358;1.248;2023-03-01T17:34:25;5.90;50.40
51383;DHT22;37475;43.358;1.248;2023-03-01T17:36:51;5.90;50.30
51383;DHT22;37475;43.358;1.248;2023-03-01T17:39:20;5.80;50.70
51383;DHT22;37475;43.358;1.248;2023-03-01T17:41:51;5.50;52.10
51383;DHT22;37475;43.358;1.248;2023-03-01T17:44:17;5.20;53.30
51383;DHT22;37475;43.358;1.248;2023-03-01T17:46:42;4.90;54.40
51383;DHT22;37475;43.358;1.248;2023-03-01T17:49:08;4.70;55.50
51383;DHT22;37475;43.358;1.248;2023-03-01T17:51:34;4.60;56.00
51383;DHT22;37475;43.358;1.248;2023-03-01T17:54:00;4.30;57.10
51383;DHT22;37475;43.358;1.248;2023-03-01T17:56:26;4.10;57.10
51383;DHT22;37475;43.358;1.248;2023-03-01T17:58:52;4.00;57.30
51383;DHT22;37475;43.358;1.248;2023-03-01T18:01:20;3.90;57.50
51383;DHT22;37475;43.358;1.248;2023-03-01T18:03:50;3.90;57.10
51383;DHT22;37475;43.358;1.248;2023-03-01T18:06:21;3.90;57.50
51383;DHT22;37475;43.358;1.248;2023-03-01T18:08:49;3.80;57.30
51383;DHT22;37475;43.358;1.248;2023-03-01T18:11:16;3.60;57.70
51383;DHT22;37475;43.358;1.248;2023-03-01T18:13:43;3.60;57.90
51383;DHT22;37475;43.358;1.248;2023-03-01T18:16:11;3.70;57.70